Accueil
METAR-TAF:

METAR-TAF

Aéroports :

Mönchengladbach, Allemagne

latitude: 51-13-49N, longitude: 006-30-16E, altitude: 38 m

Observation

Le bulletin a été fait il y a 39 minutes, à 21:50 UTC
Vent 9 kt de sud/sud-ouest, variant entre sud et ouest/sud-ouest
Température 11°C
Humidité 71%
Pression 1003 hPa
Visibilité 10 km ou plus

METAR: EDLN 262150Z AUTO 21009KT 190V250 9999 // SCT059/// BKN068/// 11/06 Q1003

Heure: 23:29 (22:29 UTC)

Prévision

Le bulletin a été fait il y a 5 heures et 29 minutes, à 17:00 UTC
Prévision valable du 26 à 18 UTC au 27 à 03 UTC
Vent 8 kt de sud/sud-ouest
Visibilité 10 km ou plus
Nuages épars à une hauteur de 3500 ft

TAF: EDLN 261700Z 2618/2703 20008KT 9999 SCT035

Observations et prévisions météorologiques de plus de 4000 aéroports (messages METAR et TAF).

Les stations disponibles sont représentées par des disques jaunes et rouges sur la carte.

Passer la souris dessus pour voir le nom de la station.

Cliquer dessus pour voir les observations et prévisions météorologiques.

Pour changer de carte: cliquez sur les boutons verts avec une croix noire pour zoomer, sur le bouton vert avec un tiret pour effectuer un zoom arrière, ou sur les flèches vertes pour les cartes adjacentes.


METAR-TAF: